Time;durP1;ratioP1;P1;durP2;ratioP2;P2;SDS_P1;SDS_P2;PMS_P1;PMS_P2;Temp;Humidity;BMP_temperature;BMP_pressure;BME280_temperature;BME280_humidity;BME280_pressure;Samples;Min_cycle;Max_cycle;Signal;HPM_P1;HPM_P2
2023/10/28 00:00:55;;;;;;;7.93;3.88;;;;;;;;;;5034984;28;20230;-83
2023/10/28 00:03:21;;;;;;;13.90;3.83;;;;;;;;;;5036226;28;20190;-84
2023/10/28 00:05:48;;;;;;;8.93;4.30;;;;;;;;;;5033804;28;20537;-84
2023/10/28 00:08:14;;;;;;;9.35;4.55;;;;;;;;;;5018201;28;20417;-84
2023/10/28 00:10:41;;;;;;;5.27;3.17;;;;;;;;;;5018110;28;20189;-85
2023/10/28 00:13:08;;;;;;;11.63;4.47;;;;;;;;;;5034161;28;20912;-85
2023/10/28 00:15:34;;;;;;;12.02;3.50;;;;;;;;;;5035709;28;20180;-84
2023/10/28 00:18:00;;;;;;;9.35;4.10;;;;;;;;;;5035242;28;20249;-86
2023/10/28 00:20:29;;;;;;;9.50;3.63;;;;;;;;;;5035152;28;20190;-86
2023/10/28 00:22:55;;;;;;;11.02;4.15;;;;;;;;;;5041315;28;20476;-85
2023/10/28 00:25:31;;;;;;;8.25;4.07;;;;;;;;;;5016621;28;20257;-85
2023/10/28 00:27:57;;;;;;;8.10;3.80;;;;;;;;;;5014413;28;20159;-88
2023/10/28 00:30:24;;;;;;;15.63;4.13;;;;;;;;;;5030567;28;20241;-86
2023/10/28 00:32:50;;;;;;;13.00;3.40;;;;;;;;;;5015231;28;20179;-86
2023/10/28 00:35:17;;;;;;;10.52;3.75;;;;;;;;;;5063028;28;20196;-86
2023/10/28 00:37:43;;;;;;;9.30;3.58;;;;;;;;;;5031836;28;20681;-86
2023/10/28 00:40:09;;;;;;;9.65;3.30;;;;;;;;;;5032801;28;20216;-86
2023/10/28 00:42:38;;;;;;;11.13;3.50;;;;;;;;;;5033013;28;20175;-87
2023/10/28 00:45:05;;;;;;;4.97;3.22;;;;;;;;;;5049993;28;20190;-86
2023/10/28 00:47:32;;;;;;;6.53;3.30;;;;;;;;;;5034941;28;20198;-86
2023/10/28 00:49:59;;;;;;;11.35;3.25;;;;;;;;;;5033008;28;20175;-87
2023/10/28 00:52:26;;;;;;;5.63;3.00;;;;;;;;;;5049341;28;20538;-86
2023/10/28 00:54:54;;;;;;;6.43;3.17;;;;;;;;;;5034819;28;20916;-85
2023/10/28 00:57:20;;;;;;;4.43;2.90;;;;;;;;;;5049810;28;20193;-86
2023/10/28 00:59:46;;;;;;;9.40;3.67;;;;;;;;;;5049623;28;20175;-85
2023/10/28 01:02:12;;;;;;;6.55;2.92;;;;;;;;;;5053307;28;20239;-86
2023/10/28 01:04:38;;;;;;;7.75;3.58;;;;;;;;;;5036646;28;20213;-85
2023/10/28 01:07:06;;;;;;;7.45;2.63;;;;;;;;;;5036778;28;20614;-86
2023/10/28 01:09:32;;;;;;;5.90;2.53;;;;;;;;;;5036777;28;20228;-86
2023/10/28 01:11:58;;;;;;;8.63;2.75;;;;;;;;;;5041255;28;20421;-86
2023/10/28 01:14:24;;;;;;;8.95;2.80;;;;;;;;;;5033088;28;20545;-85
2023/10/28 01:16:50;;;;;;;6.13;3.03;;;;;;;;;;5033511;28;20189;-86
2023/10/28 01:19:16;;;;;;;6.47;2.97;;;;;;;;;;5034162;28;20436;-86
2023/10/28 01:21:42;;;;;;;4.30;3.10;;;;;;;;;;5034694;28;20672;-86
2023/10/28 01:24:09;;;;;;;5.85;2.80;;;;;;;;;;5052814;28;20677;-86
2023/10/28 01:26:36;;;;;;;4.63;3.00;;;;;;;;;;5054383;28;20197;-86
2023/10/28 01:29:02;;;;;;;6.18;2.80;;;;;;;;;;5036555;28;20189;-86
2023/10/28 01:31:28;;;;;;;13.85;2.92;;;;;;;;;;5019028;28;20307;-86
2023/10/28 01:33:54;;;;;;;7.67;2.90;;;;;;;;;;5034544;28;20191;-85
2023/10/28 01:36:20;;;;;;;5.20;2.60;;;;;;;;;;5034035;28;20416;-86
2023/10/28 01:38:47;;;;;;;4.67;2.30;;;;;;;;;;5032944;28;20190;-85
2023/10/28 01:41:13;;;;;;;4.95;2.88;;;;;;;;;;5032477;28;20417;-85
2023/10/28 01:43:46;;;;;;;11.20;2.90;;;;;;;;;;5032732;28;20216;-85
2023/10/28 01:46:12;;;;;;;7.97;2.67;;;;;;;;;;5017110;28;20420;-85
2023/10/28 01:48:38;;;;;;;4.93;2.33;;;;;;;;;;5037513;28;20212;-85
2023/10/28 01:51:04;;;;;;;5.95;2.28;;;;;;;;;;5041042;28;20529;-86
2023/10/28 01:53:30;;;;;;;8.13;2.55;;;;;;;;;;5039809;28;20193;-85
2023/10/28 01:55:57;;;;;;;3.50;2.60;;;;;;;;;;5056568;28;20173;-86
2023/10/28 01:58:24;;;;;;;5.40;2.38;;;;;;;;;;5056487;28;20192;-86
2023/10/28 02:00:50;;;;;;;7.00;2.60;;;;;;;;;;5039530;28;20233;-86
2023/10/28 02:03:16;;;;;;;7.60;3.10;;;;;;;;;;5056201;28;20282;-86
2023/10/28 02:05:42;;;;;;;8.10;2.10;;;;;;;;;;5056749;28;20646;-86
2023/10/28 02:08:08;;;;;;;4.38;2.67;;;;;;;;;;5057342;28;20419;-86
2023/10/28 02:10:34;;;;;;;6.07;2.53;;;;;;;;;;5039480;28;20188;-86
2023/10/28 02:13:00;;;;;;;6.53;3.30;;;;;;;;;;5057463;28;20400;-86
2023/10/28 02:15:26;;;;;;;5.20;1.87;;;;;;;;;;5056961;28;20166;-86
2023/10/28 02:17:52;;;;;;;3.60;2.10;;;;;;;;;;5023276;28;20425;-86
2023/10/28 02:20:18;;;;;;;5.25;2.10;;;;;;;;;;5019432;28;20927;-86
2023/10/28 02:22:44;;;;;;;3.70;1.90;;;;;;;;;;5037375;28;20209;-86
2023/10/28 02:25:10;;;;;;;3.92;2.15;;;;;;;;;;5036801;28;20193;-86
2023/10/28 02:27:37;;;;;;;4.25;2.17;;;;;;;;;;5035969;28;20190;-87
2023/10/28 02:30:05;;;;;;;4.72;1.92;;;;;;;;;;5037103;28;20180;-87
2023/10/28 02:32:31;;;;;;;6.43;2.00;;;;;;;;;;5036801;28;20182;-87
2023/10/28 02:34:59;;;;;;;6.55;2.08;;;;;;;;;;5037952;28;20521;-88
2023/10/28 02:37:25;;;;;;;2.90;1.65;;;;;;;;;;5035749;28;20170;-88
2023/10/28 02:39:51;;;;;;;3.50;1.77;;;;;;;;;;5019183;28;20182;-88
2023/10/28 02:42:17;;;;;;;5.78;2.22;;;;;;;;;;5035655;28;20416;-88
2023/10/28 02:44:43;;;;;;;5.65;2.03;;;;;;;;;;5032421;28;20711;-88
2023/10/28 02:47:09;;;;;;;2.60;1.60;;;;;;;;;;5038890;28;20190;-87
2023/10/28 02:49:37;;;;;;;3.75;1.73;;;;;;;;;;5055884;28;20412;-88
2023/10/28 02:52:03;;;;;;;6.25;1.35;;;;;;;;;;5055567;28;20185;-89
2023/10/28 02:54:29;;;;;;;6.03;4.03;;;;;;;;;;5055271;28;20221;-88
2023/10/28 02:56:55;;;;;;;3.67;1.57;;;;;;;;;;5054955;28;20224;-88
2023/10/28 02:59:21;;;;;;;3.75;1.40;;;;;;;;;;5033901;28;20909;-89
2023/10/28 03:01:47;;;;;;;6.33;1.80;;;;;;;;;;5044169;28;20233;-89
2023/10/28 03:04:13;;;;;;;4.75;1.27;;;;;;;;;;5035744;28;20469;-89
2023/10/28 03:06:39;;;;;;;5.72;1.83;;;;;;;;;;5035656;28;20193;-89
2023/10/28 03:09:06;;;;;;;6.80;1.40;;;;;;;;;;5019163;28;20183;-89
2023/10/28 03:11:32;;;;;;;2.58;1.50;;;;;;;;;;5019230;28;20186;-89
2023/10/28 03:13:57;;;;;;;3.90;1.53;;;;;;;;;;5019092;28;20658;-89
2023/10/28 03:16:25;;;;;;;4.93;1.37;;;;;;;;;;5035115;28;20421;-89
2023/10/28 03:18:51;;;;;;;4.45;1.67;;;;;;;;;;5035198;28;20413;-89
2023/10/28 03:21:17;;;;;;;1.38;1.00;;;;;;;;;;5035076;28;20181;-90
2023/10/28 03:23:43;;;;;;;3.00;1.20;;;;;;;;;;5018712;28;20198;-90
2023/10/28 03:26:09;;;;;;;1.80;1.15;;;;;;;;;;5035236;28;20445;-89
2023/10/28 03:28:35;;;;;;;3.20;1.43;;;;;;;;;;5018329;28;20289;-90
2023/10/28 03:31:06;;;;;;;2.05;1.40;;;;;;;;;;5036652;28;20444;-90
2023/10/28 03:33:32;;;;;;;2.35;1.23;;;;;;;;;;5035539;28;20174;-90
2023/10/28 03:35:58;;;;;;;2.60;1.60;;;;;;;;;;5035542;28;20181;-90
2023/10/28 03:38:24;;;;;;;1.80;1.50;;;;;;;;;;5035179;28;20533;-90
2023/10/28 03:40:50;;;;;;;5.90;1.40;;;;;;;;;;5018868;28;20496;-90
2023/10/28 03:43:16;;;;;;;3.40;1.23;;;;;;;;;;5021348;28;20475;-90
2023/10/28 03:45:42;;;;;;;1.93;1.47;;;;;;;;;;5026554;28;20202;-90
2023/10/28 03:48:08;;;;;;;4.13;2.20;;;;;;;;;;5042442;28;20427;-89
2023/10/28 03:50:35;;;;;;;3.70;1.27;;;;;;;;;;5043842;28;20611;-89
2023/10/28 03:53:01;;;;;;;5.75;1.70;;;;;;;;;;5034733;28;20929;-90
2023/10/28 03:55:27;;;;;;;1.95;1.70;;;;;;;;;;5035055;28;20189;-90
2023/10/28 03:57:55;;;;;;;2.50;1.70;;;;;;;;;;5036326;28;20253;-89
2023/10/28 04:00:21;;;;;;;3.50;1.50;;;;;;;;;;5035357;28;20625;-90
2023/10/28 04:02:47;;;;;;;3.10;1.60;;;;;;;;;;5038487;28;20226;-90
2023/10/28 04:05:13;;;;;;;9.10;2.20;;;;;;;;;;5054518;28;20645;-90
2023/10/28 04:07:39;;;;;;;3.25;1.83;;;;;;;;;;5039878;28;20516;-91
2023/10/28 04:10:07;;;;;;;3.35;1.80;;;;;;;;;;5034891;28;20217;-90
2023/10/28 04:12:33;;;;;;;3.72;1.80;;;;;;;;;;5034823;28;20720;-90
2023/10/28 04:14:59;;;;;;;2.17;1.40;;;;;;;;;;5036094;28;20174;-90
2023/10/28 04:17:30;;;;;;;2.20;1.40;;;;;;;;;;5018524;28;20190;-90
2023/10/28 04:19:56;;;;;;;2.65;1.50;;;;;;;;;;5019047;28;20171;-91
2023/10/28 04:22:22;;;;;;;2.72;1.27;;;;;;;;;;5030152;28;20264;-90
2023/10/28 04:24:48;;;;;;;2.40;1.10;;;;;;;;;;5037933;28;20415;-90
2023/10/28 04:27:14;;;;;;;3.30;1.33;;;;;;;;;;5037688;28;20189;-90
2023/10/28 04:29:40;;;;;;;1.70;1.20;;;;;;;;;;5054456;28;20177;-90
2023/10/28 04:32:07;;;;;;;5.03;1.23;;;;;;;;;;5052582;28;20170;-90
2023/10/28 04:34:33;;;;;;;2.15;1.00;;;;;;;;;;5017589;28;20466;-89
2023/10/28 04:36:58;;;;;;;2.23;1.00;;;;;;;;;;5042823;28;20185;-89
2023/10/28 04:39:24;;;;;;;3.10;1.00;;;;;;;;;;5054006;28;20447;-90
2023/10/28 04:41:53;;;;;;;2.17;1.30;;;;;;;;;;5037900;28;20416;-90
2023/10/28 04:44:19;;;;;;;4.38;1.40;;;;;;;;;;5035270;28;21035;-90
2023/10/28 04:46:45;;;;;;;5.03;1.15;;;;;;;;;;5034174;28;20181;-90
2023/10/28 04:49:11;;;;;;;4.93;1.70;;;;;;;;;;5017814;28;20186;-90
2023/10/28 04:51:38;;;;;;;2.17;1.30;;;;;;;;;;5033625;28;20181;-90
2023/10/28 04:54:04;;;;;;;1.17;1.08;;;;;;;;;;5034151;28;20778;-90
2023/10/28 04:56:30;;;;;;;5.13;1.73;;;;;;;;;;5033925;28;20251;-90
2023/10/28 04:58:56;;;;;;;1.60;1.13;;;;;;;;;;5034129;28;20610;-90
2023/10/28 05:01:22;;;;;;;3.30;1.50;;;;;;;;;;5043455;28;20856;-90
2023/10/28 05:03:49;;;;;;;1.47;1.33;;;;;;;;;;5053566;28;20509;-89
2023/10/28 05:06:15;;;;;;;1.55;1.27;;;;;;;;;;5053491;28;20770;-89
2023/10/28 05:08:41;;;;;;;2.55;1.73;;;;;;;;;;5055064;28;20514;-90
2023/10/28 05:11:08;;;;;;;1.40;1.30;;;;;;;;;;5037560;28;20284;-90
2023/10/28 05:13:34;;;;;;;1.75;1.52;;;;;;;;;;5053368;28;20192;-90
2023/10/28 05:16:00;;;;;;;2.65;2.03;;;;;;;;;;5050830;28;20188;-89
2023/10/28 05:18:27;;;;;;;3.22;1.50;;;;;;;;;;5047530;28;20185;-89
2023/10/28 05:20:53;;;;;;;2.95;1.73;;;;;;;;;;5036672;28;20196;-89
2023/10/28 05:23:20;;;;;;;4.20;1.98;;;;;;;;;;5052296;28;20209;-89
2023/10/28 05:25:46;;;;;;;5.60;2.97;;;;;;;;;;5053006;28;20234;-89
2023/10/28 05:28:14;;;;;;;2.92;2.20;;;;;;;;;;5053087;28;20264;-89
2023/10/28 05:30:40;;;;;;;1.92;1.55;;;;;;;;;;5053131;28;20214;-89
2023/10/28 05:33:06;;;;;;;2.42;1.65;;;;;;;;;;5036983;28;20178;-90
2023/10/28 05:35:32;;;;;;;4.83;2.20;;;;;;;;;;5052718;28;20239;-90
2023/10/28 05:37:58;;;;;;;2.67;2.20;;;;;;;;;;5052997;28;20517;-90
2023/10/28 05:40:24;;;;;;;3.60;1.90;;;;;;;;;;5052969;28;20411;-90
2023/10/28 05:42:50;;;;;;;6.57;2.13;;;;;;;;;;5053011;28;20268;-90
2023/10/28 05:45:16;;;;;;;4.90;1.87;;;;;;;;;;5036478;28;20412;-89
2023/10/28 05:47:42;;;;;;;2.42;2.22;;;;;;;;;;5036806;28;20427;-90
2023/10/28 05:50:08;;;;;;;4.18;1.85;;;;;;;;;;5053270;28;20177;-90
2023/10/28 05:52:34;;;;;;;3.05;1.77;;;;;;;;;;5036706;28;20182;-91
2023/10/28 05:55:01;;;;;;;10.88;2.70;;;;;;;;;;5053789;28;20189;-91
2023/10/28 05:57:27;;;;;;;3.97;1.73;;;;;;;;;;5035005;28;20188;-91
2023/10/28 05:59:53;;;;;;;3.47;1.75;;;;;;;;;;5035735;28;20186;-90
2023/10/28 06:02:19;;;;;;;3.45;1.88;;;;;;;;;;5034792;28;20202;-90
2023/10/28 06:04:45;;;;;;;4.30;2.40;;;;;;;;;;5033751;28;20210;-91
2023/10/28 06:07:11;;;;;;;2.53;1.97;;;;;;;;;;5033968;28;20221;-91
2023/10/28 06:09:37;;;;;;;4.37;2.13;;;;;;;;;;5017856;28;20428;-90
2023/10/28 06:12:03;;;;;;;3.92;2.13;;;;;;;;;;5033648;28;20420;-91
2023/10/28 06:14:30;;;;;;;6.97;2.30;;;;;;;;;;5017119;28;20198;-91
2023/10/28 06:16:57;;;;;;;4.38;2.30;;;;;;;;;;5034068;28;20171;-91
2023/10/28 06:19:23;;;;;;;5.50;2.80;;;;;;;;;;5033789;28;20232;-90
2023/10/28 06:21:51;;;;;;;3.97;2.60;;;;;;;;;;5053698;28;20209;-91
2023/10/28 06:24:18;;;;;;;4.13;2.47;;;;;;;;;;5034473;28;20681;-91
2023/10/28 06:26:46;;;;;;;3.55;2.70;;;;;;;;;;5034001;28;20185;-91
2023/10/28 06:29:13;;;;;;;7.15;3.03;;;;;;;;;;5017812;28;20217;-91
2023/10/28 06:31:39;;;;;;;4.00;3.60;;;;;;;;;;5033454;28;20281;-90
2023/10/28 06:34:05;;;;;;;5.45;2.83;;;;;;;;;;5036070;28;20192;-91
2023/10/28 06:36:33;;;;;;;6.30;3.05;;;;;;;;;;5020498;28;20208;-90
2023/10/28 06:38:59;;;;;;;5.13;3.60;;;;;;;;;;5036594;28;20186;-90
2023/10/28 06:41:25;;;;;;;4.60;3.00;;;;;;;;;;5036867;28;20184;-90
2023/10/28 06:43:52;;;;;;;4.80;3.35;;;;;;;;;;5032667;28;21062;-84
2023/10/28 06:46:19;;;;;;;3.25;2.75;;;;;;;;;;5037030;28;20211;-85
2023/10/28 06:48:46;;;;;;;7.93;2.90;;;;;;;;;;5037308;28;20185;-84
2023/10/28 06:51:12;;;;;;;5.28;3.10;;;;;;;;;;5046679;28;20188;-84
2023/10/28 06:53:40;;;;;;;4.45;2.83;;;;;;;;;;5055588;28;20205;-84
2023/10/28 06:56:07;;;;;;;6.00;3.40;;;;;;;;;;5055658;28;20232;-84
2023/10/28 06:58:33;;;;;;;4.53;3.35;;;;;;;;;;5056925;28;20212;-84
2023/10/28 07:00:59;;;;;;;4.95;3.30;;;;;;;;;;5056885;28;20225;-84
2023/10/28 07:03:25;;;;;;;2.85;2.60;;;;;;;;;;5056487;28;20197;-84
2023/10/28 07:05:51;;;;;;;5.10;2.87;;;;;;;;;;5056975;28;20184;-84
2023/10/28 07:08:19;;;;;;;6.53;2.70;;;;;;;;;;5058028;28;20486;-84
2023/10/28 07:10:45;;;;;;;2.92;2.20;;;;;;;;;;5038899;28;20554;-84
2023/10/28 07:13:12;;;;;;;7.40;2.87;;;;;;;;;;5055286;28;20186;-85
2023/10/28 07:15:38;;;;;;;3.55;3.03;;;;;;;;;;5055408;28;20459;-84
2023/10/28 07:18:05;;;;;;;2.47;2.10;;;;;;;;;;5055744;28;20186;-84
2023/10/28 07:20:31;;;;;;;5.10;3.03;;;;;;;;;;5038545;28;20420;-84
2023/10/28 07:22:57;;;;;;;6.10;2.20;;;;;;;;;;5048533;28;20217;-84
2023/10/28 07:25:23;;;;;;;4.50;2.50;;;;;;;;;;5034750;28;20453;-84
2023/10/28 07:27:49;;;;;;;4.47;2.05;;;;;;;;;;5015959;28;20905;-84
2023/10/28 07:30:15;;;;;;;7.07;2.30;;;;;;;;;;5015538;28;20175;-84
2023/10/28 07:32:41;;;;;;;3.58;2.30;;;;;;;;;;5053282;28;20656;-84
2023/10/28 07:35:08;;;;;;;8.63;2.33;;;;;;;;;;5035132;28;20653;-84
2023/10/28 07:37:34;;;;;;;3.80;2.25;;;;;;;;;;5036152;28;20397;-83
2023/10/28 07:40:00;;;;;;;4.25;2.20;;;;;;;;;;5034803;28;20186;-83
2023/10/28 07:42:27;;;;;;;5.57;2.20;;;;;;;;;;5018490;28;20273;-83
2023/10/28 07:44:53;;;;;;;2.55;1.70;;;;;;;;;;5018204;28;20666;-84
2023/10/28 07:47:19;;;;;;;2.00;1.87;;;;;;;;;;5018545;28;20186;-84
2023/10/28 07:49:45;;;;;;;3.27;2.00;;;;;;;;;;5035807;28;20752;-84
2023/10/28 07:52:11;;;;;;;2.30;2.10;;;;;;;;;;5054322;28;20458;-84
2023/10/28 07:54:37;;;;;;;10.23;2.60;;;;;;;;;;5053967;28;20656;-84
2023/10/28 07:57:04;;;;;;;6.70;2.35;;;;;;;;;;5038091;28;20422;-84
2023/10/28 07:59:30;;;;;;;4.07;2.10;;;;;;;;;;5055552;28;20219;-84
2023/10/28 08:01:58;;;;;;;7.28;2.20;;;;;;;;;;5053948;28;20237;-84
2023/10/28 08:04:24;;;;;;;4.28;2.05;;;;;;;;;;5037836;28;20573;-84
2023/10/28 08:06:51;;;;;;;4.35;1.85;;;;;;;;;;5054377;28;20174;-84
2023/10/28 08:09:17;;;;;;;3.45;2.53;;;;;;;;;;5054590;28;20185;-83
2023/10/28 08:11:43;;;;;;;3.92;2.10;;;;;;;;;;5054099;28;20174;-84
2023/10/28 08:14:09;;;;;;;3.33;2.50;;;;;;;;;;5049308;28;20193;-84
2023/10/28 08:16:35;;;;;;;4.93;2.93;;;;;;;;;;5034067;28;20501;-83
2023/10/28 08:19:03;;;;;;;11.50;2.70;;;;;;;;;;5018270;28;20409;-83
2023/10/28 08:21:29;;;;;;;6.80;2.83;;;;;;;;;;5035221;28;20257;-83
2023/10/28 08:23:55;;;;;;;3.97;2.70;;;;;;;;;;5034464;28;20279;-83
2023/10/28 08:26:21;;;;;;;2.23;2.03;;;;;;;;;;5033944;28;20196;-84
2023/10/28 08:28:49;;;;;;;3.42;2.05;;;;;;;;;;5033861;28;20412;-84
2023/10/28 08:31:15;;;;;;;3.50;2.05;;;;;;;;;;5033861;28;20237;-84
2023/10/28 08:33:41;;;;;;;4.82;2.40;;;;;;;;;;5017376;28;20182;-84
2023/10/28 08:36:07;;;;;;;3.85;2.80;;;;;;;;;;5034041;28;20185;-84
2023/10/28 08:38:34;;;;;;;2.78;2.10;;;;;;;;;;5016991;28;20522;-84
2023/10/28 08:41:00;;;;;;;8.18;2.58;;;;;;;;;;5017500;28;20174;-83
2023/10/28 08:43:27;;;;;;;2.50;2.25;;;;;;;;;;5048822;28;20264;-84
2023/10/28 08:45:54;;;;;;;4.93;2.10;;;;;;;;;;5053969;28;20169;-84
2023/10/28 08:48:21;;;;;;;3.67;3.28;;;;;;;;;;5053433;28;20200;-84
2023/10/28 08:50:50;;;;;;;2.38;2.10;;;;;;;;;;5054712;28;20177;-84
2023/10/28 08:53:17;;;;;;;2.75;1.90;;;;;;;;;;5036158;28;20626;-84
2023/10/28 08:55:44;;;;;;;4.63;2.60;;;;;;;;;;5016369;28;20645;-84
2023/10/28 08:58:10;;;;;;;5.50;3.10;;;;;;;;;;5032840;28;20178;-83
2023/10/28 09:00:36;;;;;;;5.03;2.43;;;;;;;;;;5032961;28;20713;-84
2023/10/28 09:03:05;;;;;;;4.32;2.10;;;;;;;;;;5016926;28;20472;-83
2023/10/28 09:05:31;;;;;;;3.33;2.00;;;;;;;;;;5032932;28;20697;-83
2023/10/28 09:07:57;;;;;;;2.20;2.00;;;;;;;;;;5033266;28;20210;-84
2023/10/28 09:10:24;;;;;;;7.53;2.58;;;;;;;;;;5034380;28;20217;-84
2023/10/28 09:12:53;;;;;;;4.85;2.10;;;;;;;;;;5032836;28;20182;-83
2023/10/28 09:15:20;;;;;;;2.30;2.00;;;;;;;;;;5033010;28;20178;-84
2023/10/28 09:17:46;;;;;;;6.07;2.67;;;;;;;;;;5033075;28;20170;-83
2023/10/28 09:20:12;;;;;;;6.80;2.27;;;;;;;;;;5033468;28;20178;-84
2023/10/28 09:22:44;;;;;;;10.37;2.77;;;;;;;;;;5034254;28;20420;-84
2023/10/28 09:25:11;;;;;;;8.45;2.58;;;;;;;;;;5017170;28;20812;-84
2023/10/28 09:27:38;;;;;;;6.53;2.00;;;;;;;;;;5016606;28;20186;-84
2023/10/28 09:30:06;;;;;;;6.72;2.35;;;;;;;;;;5037956;28;20177;-84
2023/10/28 09:32:33;;;;;;;2.53;2.22;;;;;;;;;;5038307;28;20197;-84
2023/10/28 09:35:03;;;;;;;5.80;2.40;;;;;;;;;;5033293;28;20518;-84
2023/10/28 09:37:30;;;;;;;5.20;2.67;;;;;;;;;;5032402;28;20232;-85
2023/10/28 09:39:56;;;;;;;3.03;2.10;;;;;;;;;;5033794;28;20574;-84
2023/10/28 09:42:22;;;;;;;3.80;2.63;;;;;;;;;;5036870;28;20239;-84
2023/10/28 09:44:48;;;;;;;8.95;4.82;;;;;;;;;;5052111;28;20212;-85
2023/10/28 09:47:18;;;;;;;4.60;2.80;;;;;;;;;;5039134;28;20185;-85
2023/10/28 09:49:46;;;;;;;4.78;2.00;;;;;;;;;;5033533;28;20397;-85
2023/10/28 09:52:13;;;;;;;9.88;3.33;;;;;;;;;;5032288;28;20182;-85
2023/10/28 09:54:42;;;;;;;6.47;2.15;;;;;;;;;;5033759;28;20257;-85
2023/10/28 09:57:10;;;;;;;3.35;2.30;;;;;;;;;;5032694;28;20212;-85
2023/10/28 09:59:38;;;;;;;4.00;1.83;;;;;;;;;;5032669;28;20185;-85
2023/10/28 10:02:23;;;;;;;3.10;2.50;;;;;;;;;;5033699;28;20822;-85
2023/10/28 10:04:52;;;;;;;7.37;2.77;;;;;;;;;;5032078;28;20818;-85
2023/10/28 10:07:18;;;;;;;2.53;1.73;;;;;;;;;;5038301;28;20428;-85
2023/10/28 10:09:47;;;;;;;3.00;1.40;;;;;;;;;;5055910;28;20404;-86
2023/10/28 10:12:13;;;;;;;3.87;1.27;;;;;;;;;;5056717;28;20412;-85
2023/10/28 10:14:43;;;;;;;3.77;1.63;;;;;;;;;;5057397;28;20419;-85
2023/10/28 10:17:12;;;;;;;7.03;2.20;;;;;;;;;;5056602;28;20423;-86
2023/10/28 10:19:38;;;;;;;2.00;1.10;;;;;;;;;;5057174;28;20403;-86
2023/10/28 10:22:08;;;;;;;1.00;0.83;;;;;;;;;;5055690;28;20494;-86
2023/10/28 10:24:34;;;;;;;3.07;1.50;;;;;;;;;;5056800;28;20466;-84
2023/10/28 10:27:00;;;;;;;1.50;0.90;;;;;;;;;;5055803;28;20416;-82
2023/10/28 10:29:29;;;;;;;3.43;1.20;;;;;;;;;;5019047;28;20472;-82
2023/10/28 10:31:55;;;;;;;3.80;1.57;;;;;;;;;;5069052;28;20416;-87
2023/10/28 10:34:39;;;;;;;5.53;1.20;;;;;;;;;;5047050;28;20421;-86
2023/10/28 10:37:06;;;;;;;6.87;1.80;;;;;;;;;;5037087;28;20408;-86
2023/10/28 10:39:46;;;;;;;4.53;2.00;;;;;;;;;;5035712;28;20901;-86
2023/10/28 10:42:16;;;;;;;4.73;1.13;;;;;;;;;;5037530;28;20416;-86
2023/10/28 10:44:42;;;;;;;8.17;1.83;;;;;;;;;;5036809;28;20456;-86
2023/10/28 10:47:08;;;;;;;8.00;1.60;;;;;;;;;;5019244;28;20454;-85
2023/10/28 10:49:35;;;;;;;6.30;2.00;;;;;;;;;;5036771;28;20484;-86
2023/10/28 10:52:02;;;;;;;6.40;2.10;;;;;;;;;;5036846;28;20459;-86
2023/10/28 10:54:32;;;;;;;4.00;1.70;;;;;;;;;;5036144;28;20431;-86
2023/10/28 10:56:59;;;;;;;8.33;2.23;;;;;;;;;;5044583;28;20758;-85
2023/10/28 10:59:29;;;;;;;7.67;1.60;;;;;;;;;;5055296;28;20420;-84
2023/10/28 11:01:57;;;;;;;5.50;1.83;;;;;;;;;;5056906;28;20451;-84
2023/10/28 11:04:24;;;;;;;8.53;2.00;;;;;;;;;;5055474;28;20830;-85
2023/10/28 11:06:51;;;;;;;4.73;1.30;;;;;;;;;;5056599;28;20416;-84
2023/10/28 11:09:18;;;;;;;6.77;2.70;;;;;;;;;;5055309;28;20407;-85
2023/10/28 11:11:44;;;;;;;6.87;1.83;;;;;;;;;;5056459;28;20404;-84
2023/10/28 11:14:12;;;;;;;5.00;1.57;;;;;;;;;;5055086;28;20470;-85
2023/10/28 11:16:39;;;;;;;8.53;1.60;;;;;;;;;;5038856;28;20430;-85
2023/10/28 11:19:06;;;;;;;5.23;2.20;;;;;;;;;;5054699;28;20440;-85
2023/10/28 11:21:32;;;;;;;5.60;2.10;;;;;;;;;;5054459;28;20439;-85
2023/10/28 11:23:59;;;;;;;9.00;2.07;;;;;;;;;;5054602;28;20459;-84
2023/10/28 11:26:27;;;;;;;8.07;2.30;;;;;;;;;;5038487;28;20436;-85
2023/10/28 11:28:54;;;;;;;3.83;1.60;;;;;;;;;;5054781;28;20904;-82
2023/10/28 11:31:20;;;;;;;4.77;1.83;;;;;;;;;;5056421;28;20420;-83
2023/10/28 11:33:50;;;;;;;8.73;1.80;;;;;;;;;;5054838;28;20904;-83
2023/10/28 11:36:16;;;;;;;7.00;2.47;;;;;;;;;;5055297;28;20503;-83
2023/10/28 11:38:44;;;;;;;4.67;1.97;;;;;;;;;;5054696;28;20501;-83
2023/10/28 11:41:11;;;;;;;3.87;2.27;;;;;;;;;;5054736;28;20416;-82
2023/10/28 11:43:37;;;;;;;11.30;2.23;;;;;;;;;;5054911;28;20467;-81
2023/10/28 11:46:06;;;;;;;8.33;2.70;;;;;;;;;;5055432;28;20416;-81
2023/10/28 11:48:35;;;;;;;5.50;1.80;;;;;;;;;;5055238;28;20431;-82
2023/10/28 11:51:01;;;;;;;2.20;1.10;;;;;;;;;;5055029;28;20408;-81
2023/10/28 11:53:28;;;;;;;5.43;1.47;;;;;;;;;;5054889;28;20942;-83
2023/10/28 11:55:54;;;;;;;7.13;1.63;;;;;;;;;;5054433;28;20412;-83
2023/10/28 11:58:23;;;;;;;4.60;1.60;;;;;;;;;;5056223;28;20775;-82
2023/10/28 12:00:52;;;;;;;2.93;1.60;;;;;;;;;;5054283;28;20446;-84
2023/10/28 12:03:18;;;;;;;5.77;2.20;;;;;;;;;;5054518;28;20501;-83
2023/10/28 12:05:44;;;;;;;8.77;1.30;;;;;;;;;;5053706;28;21048;-84
2023/10/28 12:08:11;;;;;;;4.67;1.20;;;;;;;;;;5054474;28;20529;-81
2023/10/28 12:10:43;;;;;;;3.87;1.40;;;;;;;;;;5054424;28;20819;-82
2023/10/28 12:13:09;;;;;;;6.53;1.93;;;;;;;;;;5054590;28;20777;-79
2023/10/28 12:15:35;;;;;;;8.43;1.50;;;;;;;;;;5055545;28;20400;-83
2023/10/28 12:18:01;;;;;;;3.60;1.40;;;;;;;;;;5054563;28;20941;-83
2023/10/28 12:20:27;;;;;;;4.33;1.50;;;;;;;;;;5055709;28;20761;-82
2023/10/28 12:22:53;;;;;;;5.57;1.33;;;;;;;;;;5037023;28;20436;-84
2023/10/28 12:25:19;;;;;;;3.80;1.40;;;;;;;;;;5054272;28;20791;-83
2023/10/28 12:27:49;;;;;;;5.73;1.17;;;;;;;;;;5039401;28;20413;-83
2023/10/28 12:30:15;;;;;;;3.03;1.27;;;;;;;;;;5034314;28;20420;-83
2023/10/28 12:32:41;;;;;;;2.43;1.00;;;;;;;;;;5033916;28;20433;-84
2023/10/28 12:35:08;;;;;;;5.30;1.63;;;;;;;;;;5018406;28;20425;-82
2023/10/28 12:37:34;;;;;;;3.30;1.40;;;;;;;;;;5017946;28;20558;-82
2023/10/28 12:40:00;;;;;;;2.73;1.20;;;;;;;;;;5017592;28;20786;-83
2023/10/28 12:42:26;;;;;;;5.47;1.80;;;;;;;;;;5035321;28;20416;-83
2023/10/28 12:44:52;;;;;;;3.63;1.10;;;;;;;;;;5017221;28;20868;-83
2023/10/28 12:47:18;;;;;;;6.60;1.50;;;;;;;;;;5033887;28;20431;-83
2023/10/28 12:49:46;;;;;;;1.70;1.17;;;;;;;;;;5034326;28;20472;-78
2023/10/28 12:52:12;;;;;;;2.30;0.80;;;;;;;;;;5034260;28;20433;-81
2023/10/28 12:54:39;;;;;;;3.10;1.03;;;;;;;;;;5034300;28;20419;-81
2023/10/28 12:57:07;;;;;;;2.63;1.07;;;;;;;;;;5034809;28;20469;-82
2023/10/28 12:59:34;;;;;;;2.13;1.23;;;;;;;;;;5017686;28;20983;-83
2023/10/28 13:02:00;;;;;;;3.30;1.03;;;;;;;;;;5033028;28;20457;-85
2023/10/28 13:04:26;;;;;;;2.30;1.13;;;;;;;;;;5033362;28;20468;-84
2023/10/28 13:06:52;;;;;;;4.00;0.90;;;;;;;;;;5033076;28;20508;-85
2023/10/28 13:09:18;;;;;;;3.73;1.07;;;;;;;;;;5034600;28;20375;-83
2023/10/28 13:11:44;;;;;;;2.53;0.97;;;;;;;;;;5016891;28;20417;-83
2023/10/28 13:14:11;;;;;;;3.17;1.23;;;;;;;;;;5034628;28;20958;-84
2023/10/28 13:16:37;;;;;;;2.30;1.03;;;;;;;;;;5033823;28;20424;-82
2023/10/28 13:19:04;;;;;;;5.13;1.10;;;;;;;;;;5052722;28;20416;-84
2023/10/28 13:21:30;;;;;;;2.63;0.80;;;;;;;;;;5053347;28;20431;-85
2023/10/28 13:23:57;;;;;;;1.60;1.37;;;;;;;;;;5052481;28;20470;-82
2023/10/28 13:26:23;;;;;;;5.93;1.30;;;;;;;;;;5054368;28;20466;-84
2023/10/28 13:28:50;;;;;;;3.00;1.20;;;;;;;;;;5053119;28;20915;-84
2023/10/28 13:31:16;;;;;;;3.40;1.33;;;;;;;;;;5052849;28;20437;-83
2023/10/28 13:33:42;;;;;;;4.03;1.37;;;;;;;;;;5052356;28;20399;-82
2023/10/28 13:36:08;;;;;;;2.60;1.33;;;;;;;;;;5052778;28;20470;-83
2023/10/28 13:38:35;;;;;;;4.17;1.40;;;;;;;;;;5052944;28;20473;-83
2023/10/28 13:41:01;;;;;;;2.63;1.03;;;;;;;;;;5053512;28;20401;-83
2023/10/28 13:43:28;;;;;;;2.07;0.90;;;;;;;;;;5054413;28;20491;-81
2023/10/28 13:45:53;;;;;;;2.40;0.70;;;;;;;;;;5058113;28;20404;-83
2023/10/28 13:48:20;;;;;;;1.90;0.90;;;;;;;;;;5056558;28;20408;-79
2023/10/28 13:50:46;;;;;;;2.70;0.80;;;;;;;;;;5057060;28;20864;-82
2023/10/28 13:53:12;;;;;;;0.90;0.60;;;;;;;;;;5057350;28;20455;-81
2023/10/28 13:55:38;;;;;;;1.73;0.90;;;;;;;;;;5058590;28;20403;-83
2023/10/28 13:58:04;;;;;;;1.43;0.77;;;;;;;;;;5057228;28;20420;-83
2023/10/28 14:00:30;;;;;;;1.03;0.70;;;;;;;;;;5063632;28;20470;-83
2023/10/28 14:02:56;;;;;;;1.20;0.60;;;;;;;;;;5056849;28;20922;-81
2023/10/28 14:05:22;;;;;;;8.00;0.80;;;;;;;;;;5057917;28;20778;-82
2023/10/28 14:07:48;;;;;;;0.73;0.53;;;;;;;;;;5057896;28;20408;-83
2023/10/28 14:10:15;;;;;;;2.23;0.70;;;;;;;;;;5056859;28;20414;-83
2023/10/28 14:12:41;;;;;;;2.10;0.73;;;;;;;;;;5058184;28;20408;-83
2023/10/28 14:15:09;;;;;;;1.73;1.10;;;;;;;;;;5056752;28;20420;-83
2023/10/28 14:17:35;;;;;;;0.70;0.60;;;;;;;;;;5058032;28;20753;-82
2023/10/28 14:20:01;;;;;;;0.80;0.60;;;;;;;;;;5057602;28;20902;-82
2023/10/28 14:22:27;;;;;;;2.30;0.60;;;;;;;;;;5050418;28;20467;-83
2023/10/28 14:24:53;;;;;;;1.30;0.90;;;;;;;;;;5042610;28;20481;-81
2023/10/28 14:27:19;;;;;;;7.43;5.27;;;;;;;;;;5020942;28;20421;-83
2023/10/28 14:29:45;;;;;;;1.07;0.93;;;;;;;;;;5038120;28;20397;-83
2023/10/28 14:32:16;;;;;;;3.33;2.13;;;;;;;;;;5036808;28;20425;-83
2023/10/28 14:34:42;;;;;;;1.60;0.80;;;;;;;;;;5036762;28;20417;-83
2023/10/28 14:37:08;;;;;;;1.13;0.80;;;;;;;;;;5036275;28;20432;-84
2023/10/28 14:39:35;;;;;;;1.30;0.70;;;;;;;;;;5020247;28;20461;-83